sensor_id;sensor_type;location;lat;lon;timestamp;P1;durP1;ratioP1;P2;durP2;ratioP2
75167;SDS011;63748;48.088;11.476;2022-12-29T00:02:13;1.73;;;0.80;;
75167;SDS011;63748;48.088;11.476;2022-12-29T00:04:39;1.15;;;0.63;;
75167;SDS011;63748;48.088;11.476;2022-12-29T00:07:05;1.33;;;0.93;;
75167;SDS011;63748;48.088;11.476;2022-12-29T00:09:31;0.65;;;0.55;;
75167;SDS011;63748;48.088;11.476;2022-12-29T00:11:58;2.03;;;0.90;;
75167;SDS011;63748;48.088;11.476;2022-12-29T00:14:24;1.08;;;0.57;;
75167;SDS011;63748;48.088;11.476;2022-12-29T00:17:09;1.65;;;0.50;;
75167;SDS011;63748;48.088;11.476;2022-12-29T00:19:35;1.45;;;0.82;;
75167;SDS011;63748;48.088;11.476;2022-12-29T00:22:20;1.52;;;0.70;;
75167;SDS011;63748;48.088;11.476;2022-12-29T00:25:05;1.42;;;0.68;;
75167;SDS011;63748;48.088;11.476;2022-12-29T00:27:50;1.05;;;0.65;;
75167;SDS011;63748;48.088;11.476;2022-12-29T00:30:34;0.35;;;0.35;;
75167;SDS011;63748;48.088;11.476;2022-12-29T00:33:20;1.08;;;0.60;;
75167;SDS011;63748;48.088;11.476;2022-12-29T00:36:16;0.70;;;0.55;;
75167;SDS011;63748;48.088;11.476;2022-12-29T00:38:50;0.73;;;0.50;;
75167;SDS011;63748;48.088;11.476;2022-12-29T00:41:35;1.27;;;0.65;;
75167;SDS011;63748;48.088;11.476;2022-12-29T00:44:20;0.63;;;0.40;;
75167;SDS011;63748;48.088;11.476;2022-12-29T00:46:46;0.88;;;0.40;;
75167;SDS011;63748;48.088;11.476;2022-12-29T00:49:12;0.88;;;0.80;;
75167;SDS011;63748;48.088;11.476;2022-12-29T00:51:59;0.60;;;0.60;;
75167;SDS011;63748;48.088;11.476;2022-12-29T00:54:25;0.50;;;0.47;;
75167;SDS011;63748;48.088;11.476;2022-12-29T00:56:52;0.55;;;0.45;;
75167;SDS011;63748;48.088;11.476;2022-12-29T00:59:18;1.15;;;0.50;;
75167;SDS011;63748;48.088;11.476;2022-12-29T01:01:44;1.70;;;0.50;;
75167;SDS011;63748;48.088;11.476;2022-12-29T01:04:11;0.50;;;0.50;;
75167;SDS011;63748;48.088;11.476;2022-12-29T01:06:38;1.42;;;0.60;;
75167;SDS011;63748;48.088;11.476;2022-12-29T01:09:04;0.70;;;0.60;;
75167;SDS011;63748;48.088;11.476;2022-12-29T01:11:49;0.77;;;0.52;;
75167;SDS011;63748;48.088;11.476;2022-12-29T01:14:16;0.95;;;0.70;;
75167;SDS011;63748;48.088;11.476;2022-12-29T01:16:42;0.80;;;0.47;;
75167;SDS011;63748;48.088;11.476;2022-12-29T01:19:08;1.40;;;0.52;;
75167;SDS011;63748;48.088;11.476;2022-12-29T01:21:34;1.95;;;0.60;;
75167;SDS011;63748;48.088;11.476;2022-12-29T01:24:01;0.93;;;0.80;;
75167;SDS011;63748;48.088;11.476;2022-12-29T01:26:27;0.68;;;0.63;;
75167;SDS011;63748;48.088;11.476;2022-12-29T01:28:53;0.47;;;0.40;;
75167;SDS011;63748;48.088;11.476;2022-12-29T01:31:19;2.60;;;0.60;;
75167;SDS011;63748;48.088;11.476;2022-12-29T01:33:45;0.50;;;0.50;;
75167;SDS011;63748;48.088;11.476;2022-12-29T01:36:12;1.40;;;0.90;;
75167;SDS011;63748;48.088;11.476;2022-12-29T01:38:38;0.93;;;0.57;;
75167;SDS011;63748;48.088;11.476;2022-12-29T01:41:05;1.13;;;0.70;;
75167;SDS011;63748;48.088;11.476;2022-12-29T01:43:38;1.08;;;0.70;;
75167;SDS011;63748;48.088;11.476;2022-12-29T01:46:04;1.98;;;0.82;;
75167;SDS011;63748;48.088;11.476;2022-12-29T01:48:32;0.60;;;0.60;;
75167;SDS011;63748;48.088;11.476;2022-12-29T01:50:59;0.35;;;0.32;;
75167;SDS011;63748;48.088;11.476;2022-12-29T01:53:26;0.43;;;0.40;;
75167;SDS011;63748;48.088;11.476;2022-12-29T01:55:57;1.10;;;0.75;;
75167;SDS011;63748;48.088;11.476;2022-12-29T01:58:24;1.08;;;0.60;;
75167;SDS011;63748;48.088;11.476;2022-12-29T02:00:54;1.52;;;0.63;;
75167;SDS011;63748;48.088;11.476;2022-12-29T02:03:20;1.10;;;0.60;;
75167;SDS011;63748;48.088;11.476;2022-12-29T02:05:53;2.35;;;0.60;;
75167;SDS011;63748;48.088;11.476;2022-12-29T02:08:20;0.47;;;0.40;;
75167;SDS011;63748;48.088;11.476;2022-12-29T02:10:48;0.47;;;0.40;;
75167;SDS011;63748;48.088;11.476;2022-12-29T02:13:17;0.68;;;0.50;;
75167;SDS011;63748;48.088;11.476;2022-12-29T02:29:27;0.85;;;0.63;;
75167;SDS011;63748;48.088;11.476;2022-12-29T02:31:59;0.60;;;0.52;;
75167;SDS011;63748;48.088;11.476;2022-12-29T02:37:06;0.73;;;0.50;;
75167;SDS011;63748;48.088;11.476;2022-12-29T02:42:08;0.45;;;0.43;;
75167;SDS011;63748;48.088;11.476;2022-12-29T02:47:05;0.73;;;0.50;;
75167;SDS011;63748;48.088;11.476;2022-12-29T02:49:40;1.25;;;0.40;;
75167;SDS011;63748;48.088;11.476;2022-12-29T02:52:14;1.48;;;0.50;;
75167;SDS011;63748;48.088;11.476;2022-12-29T02:54:42;0.95;;;0.70;;
75167;SDS011;63748;48.088;11.476;2022-12-29T02:57:09;0.50;;;0.40;;
75167;SDS011;63748;48.088;11.476;2022-12-29T02:59:36;0.57;;;0.43;;
75167;SDS011;63748;48.088;11.476;2022-12-29T03:02:37;0.80;;;0.50;;
75167;SDS011;63748;48.088;11.476;2022-12-29T03:05:00;0.60;;;0.50;;
75167;SDS011;63748;48.088;11.476;2022-12-29T03:15:43;3.58;;;0.52;;
75167;SDS011;63748;48.088;11.476;2022-12-29T03:20:55;0.80;;;0.75;;
75167;SDS011;63748;48.088;11.476;2022-12-29T03:23:24;0.90;;;0.50;;
75167;SDS011;63748;48.088;11.476;2022-12-29T03:25:52;0.90;;;0.35;;
75167;SDS011;63748;48.088;11.476;2022-12-29T03:28:25;0.57;;;0.57;;
75167;SDS011;63748;48.088;11.476;2022-12-29T03:30:53;0.77;;;0.60;;
75167;SDS011;63748;48.088;11.476;2022-12-29T03:33:23;1.95;;;0.68;;
75167;SDS011;63748;48.088;11.476;2022-12-29T03:35:50;0.60;;;0.43;;
75167;SDS011;63748;48.088;11.476;2022-12-29T03:41:03;0.80;;;0.55;;
75167;SDS011;63748;48.088;11.476;2022-12-29T03:43:29;0.30;;;0.30;;
75167;SDS011;63748;48.088;11.476;2022-12-29T03:45:56;0.60;;;0.40;;
75167;SDS011;63748;48.088;11.476;2022-12-29T03:48:22;1.65;;;0.70;;
75167;SDS011;63748;48.088;11.476;2022-12-29T03:50:48;0.43;;;0.43;;
75167;SDS011;63748;48.088;11.476;2022-12-29T03:53:14;0.85;;;0.50;;
75167;SDS011;63748;48.088;11.476;2022-12-29T03:55:40;0.60;;;0.38;;
75167;SDS011;63748;48.088;11.476;2022-12-29T03:58:06;1.15;;;0.60;;
75167;SDS011;63748;48.088;11.476;2022-12-29T04:00:33;1.20;;;0.50;;
75167;SDS011;63748;48.088;11.476;2022-12-29T04:02:59;0.45;;;0.38;;
75167;SDS011;63748;48.088;11.476;2022-12-29T04:05:25;0.93;;;0.75;;
75167;SDS011;63748;48.088;11.476;2022-12-29T04:07:51;1.58;;;0.60;;
75167;SDS011;63748;48.088;11.476;2022-12-29T04:10:17;0.95;;;0.52;;
75167;SDS011;63748;48.088;11.476;2022-12-29T04:12:43;3.17;;;0.70;;
75167;SDS011;63748;48.088;11.476;2022-12-29T04:15:11;0.20;;;0.20;;
75167;SDS011;63748;48.088;11.476;2022-12-29T04:17:37;0.93;;;0.43;;
75167;SDS011;63748;48.088;11.476;2022-12-29T04:20:03;1.00;;;0.60;;
75167;SDS011;63748;48.088;11.476;2022-12-29T04:22:48;1.05;;;0.50;;
75167;SDS011;63748;48.088;11.476;2022-12-29T04:25:15;0.30;;;0.30;;
75167;SDS011;63748;48.088;11.476;2022-12-29T04:27:41;0.73;;;0.32;;
75167;SDS011;63748;48.088;11.476;2022-12-29T04:30:07;0.52;;;0.40;;
75167;SDS011;63748;48.088;11.476;2022-12-29T04:32:33;1.10;;;0.80;;
75167;SDS011;63748;48.088;11.476;2022-12-29T04:34:59;1.00;;;0.85;;
75167;SDS011;63748;48.088;11.476;2022-12-29T04:37:25;0.88;;;0.50;;
75167;SDS011;63748;48.088;11.476;2022-12-29T04:39:51;0.40;;;0.40;;
75167;SDS011;63748;48.088;11.476;2022-12-29T04:42:17;0.70;;;0.55;;
75167;SDS011;63748;48.088;11.476;2022-12-29T04:44:43;0.77;;;0.57;;
75167;SDS011;63748;48.088;11.476;2022-12-29T04:47:09;1.50;;;0.70;;
75167;SDS011;63748;48.088;11.476;2022-12-29T04:49:35;1.13;;;0.50;;
75167;SDS011;63748;48.088;11.476;2022-12-29T04:52:01;0.90;;;0.50;;
75167;SDS011;63748;48.088;11.476;2022-12-29T04:54:27;1.30;;;1.02;;
75167;SDS011;63748;48.088;11.476;2022-12-29T04:56:54;0.95;;;0.65;;
75167;SDS011;63748;48.088;11.476;2022-12-29T04:59:20;0.82;;;0.47;;
75167;SDS011;63748;48.088;11.476;2022-12-29T05:01:46;0.77;;;0.57;;
75167;SDS011;63748;48.088;11.476;2022-12-29T05:04:12;0.70;;;0.50;;
75167;SDS011;63748;48.088;11.476;2022-12-29T05:06:38;0.20;;;0.20;;
75167;SDS011;63748;48.088;11.476;2022-12-29T05:09:04;0.50;;;0.50;;
75167;SDS011;63748;48.088;11.476;2022-12-29T05:11:30;0.88;;;0.50;;
75167;SDS011;63748;48.088;11.476;2022-12-29T05:13:56;1.15;;;0.70;;
75167;SDS011;63748;48.088;11.476;2022-12-29T05:16:22;1.00;;;0.57;;
75167;SDS011;63748;48.088;11.476;2022-12-29T05:18:49;1.23;;;0.90;;
75167;SDS011;63748;48.088;11.476;2022-12-29T05:21:15;1.02;;;0.50;;
75167;SDS011;63748;48.088;11.476;2022-12-29T05:23:41;1.92;;;0.82;;
75167;SDS011;63748;48.088;11.476;2022-12-29T05:26:07;0.90;;;0.73;;
75167;SDS011;63748;48.088;11.476;2022-12-29T05:28:33;0.40;;;0.40;;
75167;SDS011;63748;48.088;11.476;2022-12-29T05:30:59;1.05;;;0.50;;
75167;SDS011;63748;48.088;11.476;2022-12-29T05:33:25;0.57;;;0.50;;
75167;SDS011;63748;48.088;11.476;2022-12-29T05:35:51;0.82;;;0.65;;
75167;SDS011;63748;48.088;11.476;2022-12-29T05:38:17;0.63;;;0.40;;
75167;SDS011;63748;48.088;11.476;2022-12-29T05:40:43;0.65;;;0.50;;
75167;SDS011;63748;48.088;11.476;2022-12-29T05:43:09;2.17;;;0.55;;
75167;SDS011;63748;48.088;11.476;2022-12-29T05:45:35;0.50;;;0.38;;
75167;SDS011;63748;48.088;11.476;2022-12-29T05:48:02;0.65;;;0.55;;
75167;SDS011;63748;48.088;11.476;2022-12-29T05:50:28;0.95;;;0.52;;
75167;SDS011;63748;48.088;11.476;2022-12-29T05:52:54;0.45;;;0.45;;
75167;SDS011;63748;48.088;11.476;2022-12-29T05:55:20;0.50;;;0.40;;
75167;SDS011;63748;48.088;11.476;2022-12-29T05:57:46;0.50;;;0.50;;
75167;SDS011;63748;48.088;11.476;2022-12-29T06:00:12;0.98;;;0.50;;
75167;SDS011;63748;48.088;11.476;2022-12-29T06:02:39;0.80;;;0.38;;
75167;SDS011;63748;48.088;11.476;2022-12-29T06:05:05;1.20;;;0.40;;
75167;SDS011;63748;48.088;11.476;2022-12-29T06:07:31;0.90;;;0.45;;
75167;SDS011;63748;48.088;11.476;2022-12-29T06:09:57;0.85;;;0.73;;
75167;SDS011;63748;48.088;11.476;2022-12-29T06:12:23;0.90;;;0.57;;
75167;SDS011;63748;48.088;11.476;2022-12-29T06:14:49;0.75;;;0.60;;
75167;SDS011;63748;48.088;11.476;2022-12-29T06:17:15;0.95;;;0.50;;
75167;SDS011;63748;48.088;11.476;2022-12-29T06:19:41;2.47;;;0.50;;
75167;SDS011;63748;48.088;11.476;2022-12-29T06:22:09;2.30;;;0.50;;
75167;SDS011;63748;48.088;11.476;2022-12-29T06:24:37;0.63;;;0.43;;
75167;SDS011;63748;48.088;11.476;2022-12-29T06:27:03;1.10;;;0.60;;
75167;SDS011;63748;48.088;11.476;2022-12-29T06:29:29;1.25;;;0.63;;
75167;SDS011;63748;48.088;11.476;2022-12-29T06:31:55;1.17;;;0.60;;
75167;SDS011;63748;48.088;11.476;2022-12-29T06:34:23;0.93;;;0.50;;
75167;SDS011;63748;48.088;11.476;2022-12-29T06:36:49;1.02;;;0.60;;
75167;SDS011;63748;48.088;11.476;2022-12-29T06:39:15;0.65;;;0.50;;
75167;SDS011;63748;48.088;11.476;2022-12-29T06:41:41;3.13;;;0.70;;
75167;SDS011;63748;48.088;11.476;2022-12-29T06:44:07;1.55;;;0.55;;
75167;SDS011;63748;48.088;11.476;2022-12-29T06:46:33;1.25;;;0.43;;
75167;SDS011;63748;48.088;11.476;2022-12-29T06:48:59;1.20;;;0.70;;
75167;SDS011;63748;48.088;11.476;2022-12-29T06:51:25;1.27;;;0.70;;
75167;SDS011;63748;48.088;11.476;2022-12-29T06:53:51;0.98;;;0.63;;
75167;SDS011;63748;48.088;11.476;2022-12-29T06:56:17;1.00;;;0.40;;
75167;SDS011;63748;48.088;11.476;2022-12-29T06:58:44;1.25;;;0.60;;
75167;SDS011;63748;48.088;11.476;2022-12-29T07:01:10;0.98;;;0.70;;
75167;SDS011;63748;48.088;11.476;2022-12-29T07:03:36;2.00;;;0.70;;
75167;SDS011;63748;48.088;11.476;2022-12-29T07:06:02;0.80;;;0.47;;
75167;SDS011;63748;48.088;11.476;2022-12-29T07:08:28;0.95;;;0.70;;
75167;SDS011;63748;48.088;11.476;2022-12-29T07:10:54;0.93;;;0.68;;
75167;SDS011;63748;48.088;11.476;2022-12-29T07:13:20;0.52;;;0.40;;
75167;SDS011;63748;48.088;11.476;2022-12-29T07:15:46;1.20;;;0.60;;
75167;SDS011;63748;48.088;11.476;2022-12-29T07:18:12;0.80;;;0.55;;
75167;SDS011;63748;48.088;11.476;2022-12-29T07:20:38;0.70;;;0.60;;
75167;SDS011;63748;48.088;11.476;2022-12-29T07:23:04;3.88;;;0.70;;
75167;SDS011;63748;48.088;11.476;2022-12-29T07:25:30;1.65;;;0.65;;
75167;SDS011;63748;48.088;11.476;2022-12-29T07:27:56;2.17;;;0.75;;
75167;SDS011;63748;48.088;11.476;2022-12-29T07:30:22;1.35;;;0.55;;
75167;SDS011;63748;48.088;11.476;2022-12-29T07:32:48;1.30;;;0.60;;
75167;SDS011;63748;48.088;11.476;2022-12-29T07:35:14;0.70;;;0.50;;
75167;SDS011;63748;48.088;11.476;2022-12-29T07:37:40;0.70;;;0.52;;
75167;SDS011;63748;48.088;11.476;2022-12-29T07:40:07;0.88;;;0.70;;
75167;SDS011;63748;48.088;11.476;2022-12-29T07:42:33;0.77;;;0.40;;
75167;SDS011;63748;48.088;11.476;2022-12-29T07:44:59;0.98;;;0.60;;
75167;SDS011;63748;48.088;11.476;2022-12-29T07:47:25;0.70;;;0.50;;
75167;SDS011;63748;48.088;11.476;2022-12-29T07:49:52;0.90;;;0.60;;
75167;SDS011;63748;48.088;11.476;2022-12-29T07:52:18;0.47;;;0.40;;
75167;SDS011;63748;48.088;11.476;2022-12-29T07:54:44;0.90;;;0.50;;
75167;SDS011;63748;48.088;11.476;2022-12-29T07:57:10;1.50;;;0.68;;
75167;SDS011;63748;48.088;11.476;2022-12-29T07:59:36;1.10;;;0.50;;
75167;SDS011;63748;48.088;11.476;2022-12-29T08:02:02;1.40;;;0.68;;
75167;SDS011;63748;48.088;11.476;2022-12-29T08:04:28;1.48;;;0.90;;
75167;SDS011;63748;48.088;11.476;2022-12-29T08:06:54;3.20;;;1.00;;
75167;SDS011;63748;48.088;11.476;2022-12-29T08:09:20;1.83;;;0.60;;
75167;SDS011;63748;48.088;11.476;2022-12-29T08:11:46;0.90;;;0.65;;
75167;SDS011;63748;48.088;11.476;2022-12-29T08:14:12;2.42;;;0.82;;
75167;SDS011;63748;48.088;11.476;2022-12-29T08:16:38;0.93;;;0.50;;
75167;SDS011;63748;48.088;11.476;2022-12-29T08:19:04;1.38;;;0.88;;
75167;SDS011;63748;48.088;11.476;2022-12-29T08:21:31;1.85;;;0.75;;
75167;SDS011;63748;48.088;11.476;2022-12-29T08:23:57;1.88;;;0.65;;
75167;SDS011;63748;48.088;11.476;2022-12-29T08:26:24;1.23;;;0.82;;
75167;SDS011;63748;48.088;11.476;2022-12-29T08:28:52;1.20;;;0.40;;
75167;SDS011;63748;48.088;11.476;2022-12-29T08:31:18;2.13;;;1.00;;
75167;SDS011;63748;48.088;11.476;2022-12-29T08:33:44;0.90;;;0.70;;
75167;SDS011;63748;48.088;11.476;2022-12-29T08:36:10;0.45;;;0.45;;
75167;SDS011;63748;48.088;11.476;2022-12-29T08:38:36;0.90;;;0.70;;
75167;SDS011;63748;48.088;11.476;2022-12-29T08:41:02;0.65;;;0.55;;
75167;SDS011;63748;48.088;11.476;2022-12-29T08:43:29;1.17;;;0.70;;
75167;SDS011;63748;48.088;11.476;2022-12-29T08:45:56;1.27;;;0.70;;
75167;SDS011;63748;48.088;11.476;2022-12-29T08:48:23;0.95;;;0.68;;
75167;SDS011;63748;48.088;11.476;2022-12-29T08:50:49;1.00;;;0.73;;
75167;SDS011;63748;48.088;11.476;2022-12-29T08:53:16;3.75;;;1.00;;
75167;SDS011;63748;48.088;11.476;2022-12-29T08:55:44;2.85;;;0.88;;
75167;SDS011;63748;48.088;11.476;2022-12-29T08:58:11;1.67;;;0.77;;
75167;SDS011;63748;48.088;11.476;2022-12-29T09:03:05;1.25;;;0.75;;
75167;SDS011;63748;48.088;11.476;2022-12-29T09:05:31;1.10;;;0.55;;
75167;SDS011;63748;48.088;11.476;2022-12-29T09:07:57;1.48;;;0.95;;
75167;SDS011;63748;48.088;11.476;2022-12-29T09:10:23;8.43;;;0.80;;
75167;SDS011;63748;48.088;11.476;2022-12-29T09:12:49;1.40;;;0.80;;
75167;SDS011;63748;48.088;11.476;2022-12-29T09:15:15;1.45;;;0.77;;
75167;SDS011;63748;48.088;11.476;2022-12-29T09:17:41;2.40;;;0.55;;
75167;SDS011;63748;48.088;11.476;2022-12-29T09:20:11;1.35;;;0.60;;
75167;SDS011;63748;48.088;11.476;2022-12-29T09:22:37;0.85;;;0.50;;
75167;SDS011;63748;48.088;11.476;2022-12-29T09:25:03;0.63;;;0.50;;
75167;SDS011;63748;48.088;11.476;2022-12-29T09:27:30;0.82;;;0.50;;
75167;SDS011;63748;48.088;11.476;2022-12-29T09:29:56;2.20;;;0.55;;
75167;SDS011;63748;48.088;11.476;2022-12-29T09:32:22;1.05;;;0.57;;
75167;SDS011;63748;48.088;11.476;2022-12-29T09:34:48;1.02;;;0.60;;
75167;SDS011;63748;48.088;11.476;2022-12-29T09:37:14;1.25;;;0.77;;
75167;SDS011;63748;48.088;11.476;2022-12-29T09:39:40;0.75;;;0.52;;
75167;SDS011;63748;48.088;11.476;2022-12-29T09:42:08;0.50;;;0.35;;
75167;SDS011;63748;48.088;11.476;2022-12-29T09:47:03;0.63;;;0.60;;
75167;SDS011;63748;48.088;11.476;2022-12-29T09:49:39;0.80;;;0.80;;
75167;SDS011;63748;48.088;11.476;2022-12-29T09:52:42;1.38;;;0.60;;
75167;SDS011;63748;48.088;11.476;2022-12-29T09:55:43;1.13;;;0.60;;
75167;SDS011;63748;48.088;11.476;2022-12-29T09:57:53;0.88;;;0.55;;
75167;SDS011;63748;48.088;11.476;2022-12-29T10:00:21;0.85;;;0.60;;
75167;SDS011;63748;48.088;11.476;2022-12-29T10:03:11;1.13;;;0.70;;
75167;SDS011;63748;48.088;11.476;2022-12-29T10:05:39;0.75;;;0.57;;
75167;SDS011;63748;48.088;11.476;2022-12-29T10:11:18;1.13;;;0.65;;
75167;SDS011;63748;48.088;11.476;2022-12-29T10:13:55;1.27;;;1.00;;
75167;SDS011;63748;48.088;11.476;2022-12-29T10:16:29;0.73;;;0.60;;
75167;SDS011;63748;48.088;11.476;2022-12-29T10:24:18;1.42;;;0.60;;
75167;SDS011;63748;48.088;11.476;2022-12-29T10:26:45;0.82;;;0.68;;
75167;SDS011;63748;48.088;11.476;2022-12-29T10:29:16;0.77;;;0.60;;
75167;SDS011;63748;48.088;11.476;2022-12-29T10:31:48;1.58;;;0.75;;
75167;SDS011;63748;48.088;11.476;2022-12-29T10:34:24;1.00;;;0.65;;
75167;SDS011;63748;48.088;11.476;2022-12-29T10:36:57;2.40;;;0.73;;
75167;SDS011;63748;48.088;11.476;2022-12-29T10:39:34;1.30;;;0.70;;
75167;SDS011;63748;48.088;11.476;2022-12-29T10:42:11;1.15;;;0.80;;
75167;SDS011;63748;48.088;11.476;2022-12-29T10:44:39;0.85;;;0.50;;
75167;SDS011;63748;48.088;11.476;2022-12-29T10:47:07;1.40;;;0.85;;
75167;SDS011;63748;48.088;11.476;2022-12-29T10:49:37;1.25;;;0.63;;
75167;SDS011;63748;48.088;11.476;2022-12-29T10:52:04;1.58;;;0.90;;
75167;SDS011;63748;48.088;11.476;2022-12-29T10:54:32;1.25;;;0.75;;
75167;SDS011;63748;48.088;11.476;2022-12-29T10:57:01;3.00;;;0.85;;
75167;SDS011;63748;48.088;11.476;2022-12-29T10:59:30;2.35;;;0.85;;
75167;SDS011;63748;48.088;11.476;2022-12-29T11:07:10;2.80;;;0.80;;
75167;SDS011;63748;48.088;11.476;2022-12-29T11:09:37;2.15;;;1.10;;
75167;SDS011;63748;48.088;11.476;2022-12-29T11:12:24;1.33;;;0.82;;
75167;SDS011;63748;48.088;11.476;2022-12-29T11:15:01;0.82;;;0.75;;
75167;SDS011;63748;48.088;11.476;2022-12-29T11:17:27;1.10;;;0.80;;
75167;SDS011;63748;48.088;11.476;2022-12-29T11:19:53;1.05;;;0.90;;
75167;SDS011;63748;48.088;11.476;2022-12-29T11:24:46;1.88;;;0.88;;
75167;SDS011;63748;48.088;11.476;2022-12-29T11:29:41;3.33;;;0.75;;
75167;SDS011;63748;48.088;11.476;2022-12-29T11:32:21;2.17;;;0.80;;
75167;SDS011;63748;48.088;11.476;2022-12-29T11:34:47;1.20;;;0.68;;
75167;SDS011;63748;48.088;11.476;2022-12-29T11:37:14;1.98;;;0.80;;
75167;SDS011;63748;48.088;11.476;2022-12-29T11:42:15;0.85;;;0.70;;
75167;SDS011;63748;48.088;11.476;2022-12-29T11:44:43;0.85;;;0.60;;
75167;SDS011;63748;48.088;11.476;2022-12-29T11:47:11;1.45;;;0.80;;
75167;SDS011;63748;48.088;11.476;2022-12-29T11:49:38;0.70;;;0.50;;
75167;SDS011;63748;48.088;11.476;2022-12-29T11:52:04;1.23;;;0.77;;
75167;SDS011;63748;48.088;11.476;2022-12-29T11:54:31;1.90;;;0.70;;
75167;SDS011;63748;48.088;11.476;2022-12-29T11:57:07;2.22;;;0.68;;
75167;SDS011;63748;48.088;11.476;2022-12-29T11:59:40;1.02;;;0.60;;
75167;SDS011;63748;48.088;11.476;2022-12-29T12:02:17;1.27;;;0.73;;
75167;SDS011;63748;48.088;11.476;2022-12-29T12:04:46;1.00;;;0.88;;
75167;SDS011;63748;48.088;11.476;2022-12-29T12:07:47;0.95;;;0.63;;
75167;SDS011;63748;48.088;11.476;2022-12-29T12:10:06;0.85;;;0.50;;
75167;SDS011;63748;48.088;11.476;2022-12-29T12:12:39;1.77;;;0.75;;
75167;SDS011;63748;48.088;11.476;2022-12-29T12:15:08;2.00;;;0.82;;
75167;SDS011;63748;48.088;11.476;2022-12-29T12:18:00;1.20;;;0.47;;
75167;SDS011;63748;48.088;11.476;2022-12-29T12:25:41;1.02;;;0.65;;
75167;SDS011;63748;48.088;11.476;2022-12-29T12:28:13;0.77;;;0.70;;
75167;SDS011;63748;48.088;11.476;2022-12-29T12:30:43;1.10;;;0.60;;
75167;SDS011;63748;48.088;11.476;2022-12-29T12:36:09;1.02;;;0.70;;
75167;SDS011;63748;48.088;11.476;2022-12-29T12:48:58;0.85;;;0.68;;
75167;SDS011;63748;48.088;11.476;2022-12-29T12:56:34;1.08;;;0.68;;
75167;SDS011;63748;48.088;11.476;2022-12-29T13:01:33;1.20;;;0.65;;
75167;SDS011;63748;48.088;11.476;2022-12-29T13:06:52;1.77;;;0.70;;
75167;SDS011;63748;48.088;11.476;2022-12-29T13:12:01;1.80;;;0.75;;
75167;SDS011;63748;48.088;11.476;2022-12-29T13:14:52;1.75;;;0.77;;
75167;SDS011;63748;48.088;11.476;2022-12-29T13:17:28;1.38;;;0.70;;
75167;SDS011;63748;48.088;11.476;2022-12-29T13:30:21;2.78;;;0.90;;
75167;SDS011;63748;48.088;11.476;2022-12-29T13:37:54;1.08;;;0.80;;
75167;SDS011;63748;48.088;11.476;2022-12-29T13:40:23;1.25;;;0.60;;
75167;SDS011;63748;48.088;11.476;2022-12-29T13:42:50;0.82;;;0.60;;
75167;SDS011;63748;48.088;11.476;2022-12-29T13:45:17;1.33;;;0.70;;
75167;SDS011;63748;48.088;11.476;2022-12-29T13:47:54;1.00;;;0.65;;
75167;SDS011;63748;48.088;11.476;2022-12-29T13:50:24;1.95;;;0.60;;
75167;SDS011;63748;48.088;11.476;2022-12-29T13:58:09;0.65;;;0.60;;
75167;SDS011;63748;48.088;11.476;2022-12-29T14:08:35;1.10;;;0.73;;
75167;SDS011;63748;48.088;11.476;2022-12-29T14:11:05;2.35;;;0.90;;
75167;SDS011;63748;48.088;11.476;2022-12-29T14:13:33;3.50;;;1.35;;
75167;SDS011;63748;48.088;11.476;2022-12-29T14:16:03;1.63;;;0.90;;
75167;SDS011;63748;48.088;11.476;2022-12-29T14:18:31;2.03;;;1.30;;
75167;SDS011;63748;48.088;11.476;2022-12-29T14:23:45;1.55;;;1.00;;
75167;SDS011;63748;48.088;11.476;2022-12-29T14:33:39;2.03;;;1.05;;
75167;SDS011;63748;48.088;11.476;2022-12-29T14:36:53;2.50;;;1.05;;
75167;SDS011;63748;48.088;11.476;2022-12-29T14:38:53;1.40;;;0.93;;
75167;SDS011;63748;48.088;11.476;2022-12-29T14:46:46;2.72;;;1.00;;
75167;SDS011;63748;48.088;11.476;2022-12-29T14:51:39;2.28;;;1.25;;
75167;SDS011;63748;48.088;11.476;2022-12-29T14:55:27;2.13;;;1.13;;
75167;SDS011;63748;48.088;11.476;2022-12-29T14:57:01;3.15;;;1.10;;
75167;SDS011;63748;48.088;11.476;2022-12-29T14:59:28;1.38;;;0.90;;
75167;SDS011;63748;48.088;11.476;2022-12-29T15:01:55;1.85;;;1.27;;
75167;SDS011;63748;48.088;11.476;2022-12-29T15:06:48;2.03;;;1.10;;
75167;SDS011;63748;48.088;11.476;2022-12-29T15:11:51;3.05;;;1.40;;
75167;SDS011;63748;48.088;11.476;2022-12-29T15:19:36;2.75;;;1.10;;
75167;SDS011;63748;48.088;11.476;2022-12-29T15:22:02;2.45;;;1.20;;
75167;SDS011;63748;48.088;11.476;2022-12-29T15:24:28;1.90;;;1.20;;
75167;SDS011;63748;48.088;11.476;2022-12-29T15:26:54;2.15;;;1.20;;
75167;SDS011;63748;48.088;11.476;2022-12-29T15:29:36;2.83;;;1.83;;
75167;SDS011;63748;48.088;11.476;2022-12-29T15:34:42;2.10;;;1.20;;
75167;SDS011;63748;48.088;11.476;2022-12-29T15:37:08;1.65;;;1.08;;
75167;SDS011;63748;48.088;11.476;2022-12-29T15:39:34;2.75;;;1.50;;
75167;SDS011;63748;48.088;11.476;2022-12-29T15:44:37;2.47;;;1.15;;
75167;SDS011;63748;48.088;11.476;2022-12-29T15:47:04;3.00;;;1.20;;
75167;SDS011;63748;48.088;11.476;2022-12-29T15:49:31;1.52;;;1.13;;
75167;SDS011;63748;48.088;11.476;2022-12-29T15:51:57;2.70;;;1.15;;
75167;SDS011;63748;48.088;11.476;2022-12-29T15:54:24;3.17;;;1.23;;
75167;SDS011;63748;48.088;11.476;2022-12-29T15:56:51;2.53;;;1.60;;
75167;SDS011;63748;48.088;11.476;2022-12-29T15:59:28;3.15;;;1.35;;
75167;SDS011;63748;48.088;11.476;2022-12-29T16:01:55;2.38;;;1.20;;
75167;SDS011;63748;48.088;11.476;2022-12-29T16:04:21;2.47;;;1.50;;
75167;SDS011;63748;48.088;11.476;2022-12-29T16:09:33;1.67;;;0.93;;
75167;SDS011;63748;48.088;11.476;2022-12-29T16:12:02;2.83;;;1.25;;
75167;SDS011;63748;48.088;11.476;2022-12-29T16:16:56;1.60;;;0.95;;
75167;SDS011;63748;48.088;11.476;2022-12-29T16:21:48;3.90;;;1.23;;
75167;SDS011;63748;48.088;11.476;2022-12-29T16:24:15;2.95;;;1.20;;
75167;SDS011;63748;48.088;11.476;2022-12-29T16:27:28;2.95;;;1.45;;
75167;SDS011;63748;48.088;11.476;2022-12-29T16:29:29;2.97;;;1.58;;
75167;SDS011;63748;48.088;11.476;2022-12-29T16:31:56;4.40;;;1.38;;
75167;SDS011;63748;48.088;11.476;2022-12-29T16:34:30;3.05;;;1.30;;
75167;SDS011;63748;48.088;11.476;2022-12-29T16:37:01;1.50;;;1.02;;
75167;SDS011;63748;48.088;11.476;2022-12-29T16:39:29;2.25;;;1.10;;
75167;SDS011;63748;48.088;11.476;2022-12-29T16:41:55;2.58;;;1.15;;
75167;SDS011;63748;48.088;11.476;2022-12-29T16:46:58;3.50;;;1.85;;
75167;SDS011;63748;48.088;11.476;2022-12-29T16:49:24;2.85;;;1.10;;
75167;SDS011;63748;48.088;11.476;2022-12-29T16:51:51;2.85;;;1.10;;
75167;SDS011;63748;48.088;11.476;2022-12-29T16:54:21;7.13;;;1.27;;
75167;SDS011;63748;48.088;11.476;2022-12-29T16:56:48;1.80;;;1.10;;
75167;SDS011;63748;48.088;11.476;2022-12-29T17:01:41;1.95;;;1.02;;
75167;SDS011;63748;48.088;11.476;2022-12-29T17:04:11;1.55;;;1.02;;
75167;SDS011;63748;48.088;11.476;2022-12-29T17:06:37;2.25;;;0.98;;
75167;SDS011;63748;48.088;11.476;2022-12-29T17:09:25;3.03;;;1.25;;
75167;SDS011;63748;48.088;11.476;2022-12-29T17:11:54;2.92;;;1.58;;
75167;SDS011;63748;48.088;11.476;2022-12-29T17:16:49;4.13;;;2.00;;
75167;SDS011;63748;48.088;11.476;2022-12-29T17:19:20;2.92;;;1.77;;
75167;SDS011;63748;48.088;11.476;2022-12-29T17:21:46;3.15;;;1.38;;
75167;SDS011;63748;48.088;11.476;2022-12-29T17:24:16;3.67;;;1.80;;
75167;SDS011;63748;48.088;11.476;2022-12-29T17:26:47;2.50;;;1.50;;
75167;SDS011;63748;48.088;11.476;2022-12-29T17:29:16;2.85;;;1.25;;
75167;SDS011;63748;48.088;11.476;2022-12-29T17:31:43;3.15;;;1.30;;
75167;SDS011;63748;48.088;11.476;2022-12-29T17:34:12;4.47;;;1.02;;